ADDS METAR Data INFO
IDs: Format: Raw Decoded Include TAF

Data at: 0355 UTC 19 Feb 2018

KORG 190335Z AUTO 15007KT 1 1/2SM BR OVC003 20/20 A3009 RMK AO2 T02000200
KORG 190315Z AUTO 15007KT 1SM BR OVC003 20/20 A3009 RMK AO2 T02000200
KORG 190255Z AUTO 15006KT 3SM BR OVC003 20/20 A3010 RMK AO2 T02020202
KORG 190235Z AUTO 16008KT 7SM OVC003 20/20 A3010 RMK AO2 T02020202
KORG 190215Z AUTO 16004KT 10SM OVC005 20/20 A3009 RMK AO2 T02030203
KORG 190155Z AUTO 16005KT 10SM BKN005 OVC035 20/20 A3009 RMK AO2 T02030203
KORG 190135Z AUTO 17007KT 10SM OVC003 21/21 A3009 RMK AO2 T02070207
KORG 190115Z AUTO 16005KT 7SM OVC003 21/21 A3009 RMK AO2 T02060206
KORG 190055Z AUTO 17006KT 4SM BR BKN003 OVC007 21/21 A3009 RMK AO2 T02050205
KORG 190035Z AUTO 16008KT 10SM OVC007 21/21 A3009 RMK AO2 T02110207
KORG 190015Z AUTO 17006KT 10SM SCT009 OVC039 22/21 A3009 RMK AO2 T02150208
KORG 182355Z AUTO 17008KT 10SM SCT009 BKN037 22/21 A3009 RMK AO2 T02170210 10243 20211
KORG 182335Z AUTO 19007KT 10SM SCT010 SCT032 22/21 A3009 RMK AO2 T02190210
KORG 182315Z AUTO 19008KT 10SM SCT010 23/21 A3009 RMK AO2 T02250210
KORG 182255Z AUTO 20009KT 10SM BKN012 23/21 A3009 RMK AO2 T02270211
KORG 182235Z AUTO 19007KT 10SM BKN012 23/21 A3009 RMK AO2 T02310211
KORG 182215Z AUTO 18010KT 10SM SCT012 23/21 A3009 RMK AO2 T02320211
KORG 182155Z AUTO 19010KT 10SM SCT012 24/21 A3009 RMK AO2 T02400212
KORG 182135Z AUTO 19010KT 10SM SCT014 24/21 A3010 RMK AO2 T02370210
KORG 182115Z AUTO 20009KT 10SM BKN014 24/21 A3010 RMK AO2 T02410212
KORG 182055Z AUTO 19009KT 10SM BKN014 BKN020 BKN029 24/21 A3010 RMK AO2 T02390211
KORG 182035Z AUTO 20009KT 10SM SCT012 BKN022 BKN027 24/21 A3011 RMK AO2 T02350206
KORG 182015Z AUTO 20012KT 10SM BKN014 BKN018 23/21 A3012 RMK AO2 T02340208
KORG 181955Z AUTO 19009KT 160V220 10SM OVC014 24/21 A3013 RMK AO2 T02350209
KORG 181935Z AUTO 18008KT 10SM OVC012 23/21 A3013 RMK AO2 T02300206
KORG 181915Z AUTO 17009KT 10SM OVC010 23/21 A3014 RMK AO2 T02260206
KORG 181855Z AUTO 19009KT 10SM BKN010 OVC014 22/21 A3015 RMK AO2 T02240207
KORG 181835Z AUTO 16005KT 10SM OVC008 21/20 A3016 RMK AO2 T02130202
KORG 181815Z AUTO 15005KT 10SM OVC008 21/20 A3017 RMK AO2 T02120201
KORG 181755Z AUTO 15006KT 10SM OVC008 22/20 A3018 RMK AO2 T02150201 10215 20159
KORG 181735Z AUTO 14006KT 10SM OVC008 21/20 A3018 RMK AO2 T02060197
KORG 181715Z AUTO 11006KT 7SM OVC006 20/20 A3019 RMK AO2 T01990195
KORG 181655Z AUTO 10005KT 5SM BR OVC006 19/19 A3019 RMK AO2 T01900190
KORG 181635Z AUTO 10006KT 3SM BR OVC004 19/19 A3019 RMK AO2 T01850185
KORG 181615Z AUTO 11006KT 2 1/2SM BR OVC002 18/18 A3019 RMK AO2 T01810181
KORG 181555Z AUTO 09005KT 2SM BR OVC002 18/18 A3019 RMK AO2 T01750175
KORG 181535Z AUTO 08005KT 1 1/4SM BR OVC002 17/17 A3019 RMK AO2 T01720172
KORG 181515Z AUTO 07005KT 3/4SM BR OVC002 17/17 A3019 RMK AO2 T01700170
KORG 181455Z AUTO 09006KT 3/4SM BR OVC002 17/17 A3019 RMK AO2 T01680168
KORG 181435Z AUTO 07006KT 1/2SM FG OVC002 17/17 A3018 RMK AO2 T01660166
KORG 181415Z AUTO 06004KT 1/2SM FG OVC002 17/17 A3018 RMK AO2 T01650165
KORG 181355Z AUTO 07004KT 1/2SM FG OVC002 16/16 A3017 RMK AO2 T01620162
KORG 181335Z AUTO 07004KT 1SM BR OVC002 16/16 A3016 RMK AO2 T01610161
KORG 181315Z AUTO 06004KT 1SM BR OVC002 16/16 A3016 RMK AO2 T01610161
KORG 181255Z AUTO 05004KT 1SM BR OVC002 16/16 A3016 RMK AO2 T01600160
KORG 181235Z AUTO 06004KT 1SM BR OVC002 16/16 A3016 RMK AO2 T01600160
KORG 181215Z AUTO 05004KT 1 1/4SM BR OVC002 16/16 A3016 RMK AO2 T01600160
KORG 181155Z AUTO 02003KT 1 1/2SM BR OVC002 16/16 A3015 RMK AO2 70002 T01600160 10165 20158
KORG 181135Z AUTO 04004KT 1 1/2SM BR OVC002 16/16 A3015 RMK AO2 T01600160
KORG 181115Z AUTO 05004KT 1 1/4SM BR OVC002 16/16 A3015 RMK AO2 T01590159
KORG 181055Z AUTO 05005KT 1 1/2SM BR OVC002 16/16 A3015 RMK AO2 T01590159
KORG 181035Z AUTO 07005KT 1 1/4SM BR OVC002 16/16 A3015 RMK AO2 T01580158
KORG 181015Z AUTO 06004KT 2SM BR OVC002 16/16 A3014 RMK AO2 T01580158
KORG 180955Z AUTO 06005KT 2 1/2SM BR OVC004 16/16 A3014 RMK AO2 T01580158
KORG 180935Z AUTO 04004KT 3SM BR OVC004 16/16 A3014 RMK AO2 T01590159
KORG 180915Z AUTO 03004KT 4SM BR OVC004 16/16 A3014 RMK AO2 T01600160
KORG 180855Z AUTO 05005KT 4SM BR OVC004 16/16 A3014 RMK AO2 T01610161
KORG 180835Z AUTO 05004KT 3SM BR OVC004 16/16 A3014 RMK AO2 T01620162
KORG 180815Z AUTO 05004KT 4SM BR OVC004 16/16 A3015 RMK AO2 T01620162
KORG 180755Z AUTO 04004KT 4SM BR OVC004 16/16 A3015 RMK AO2 T01640164
KORG 180735Z AUTO 05003KT 4SM BR OVC004 16/16 A3015 RMK AO2 T01640164
KORG 180715Z AUTO 03003KT 4SM BR OVC004 17/17 A3016 RMK AO2 T01650165
KORG 180655Z AUTO 04003KT 5SM BR OVC004 16/16 A3015 RMK AO2 T01630163
KORG 180635Z AUTO 02003KT 5SM BR OVC004 16/16 A3015 RMK AO2 T01620162
KORG 180615Z AUTO 02006KT 5SM BR OVC004 16/16 A3015 RMK AO2 T01620162
KORG 180555Z AUTO 00000KT 5SM BR BKN004 OVC010 16/16 A3015 RMK AO2 60002 T01620162 10217 20160 402700160
KORG 180535Z AUTO 02003KT 5SM BR OVC004 16/16 A3016 RMK AO2 T01610161
KORG 180515Z AUTO 03004KT 5SM BR OVC004 16/16 A3016 RMK AO2 T01600160
KORG 180455Z AUTO 03004KT 7SM SCT004 BKN030 OVC055 16/16 A3016 RMK AO2 T01600160
KORG 180435Z AUTO 01003KT 7SM BKN032 OVC055 16/16 A3016 RMK AO2 T01600160
KORG 180415Z AUTO 36003KT 5SM BR SCT016 BKN032 OVC055 16/16 A3017 RMK AO2 T01600160
KORG 180355Z AUTO 00000KT 3SM DZ BKN016 BKN026 OVC037 16/16 A3017 RMK AO2 P0001 T01600160
KORG 180335Z AUTO 05005KT 7SM SCT016 SCT027 OVC039 16/16 A3017 RMK AO2 T01610161
KORG 180315Z AUTO 01003KT 7SM SCT005 BKN016 OVC021 16/16 A3018 RMK AO2 T01620162
KORG 180255Z AUTO 01007KT 7SM BKN005 OVC013 17/17 A3018 RMK AO2 P0001 60001 T01650165
KORG 180235Z AUTO 35006KT 10SM -RA BKN004 OVC009 17/17 A3017 RMK AO2 P0001 T01720172
KORG 180215Z AUTO 35005KT 10SM DZ OVC004 18/18 A3016 RMK AO2 T01840184
KORG 180155Z AUTO 00000KT 5SM +RA OVC004 21/21 A3015 RMK AO2 T02050205
KORG 180135Z AUTO 21003KT 7SM OVC004 21/21 A3014 RMK AO2 T02060206
KORG 180115Z AUTO 20006KT 7SM OVC006 21/21 A3013 RMK AO2 T02100208
KORG 180055Z AUTO 19005KT 10SM OVC006 21/21 A3013 RMK AO2 T02080207
KORG 180035Z AUTO 19007KT 10SM OVC006 21/21 A3012 RMK AO2 T02110209
KORG 180015Z AUTO 19007KT 10SM BKN006 BKN018 OVC028 22/21 A3012 RMK AO2 T02150210
KORG 172355Z AUTO 20008KT 7SM SCT008 BKN029 OVC080 22/21 A3012 RMK AO2 T02160211 10270 20216
KORG 172335Z AUTO 19006KT 7SM SCT008 BKN029 OVC070 22/21 A3011 RMK AO2 T02200210
KORG 172315Z AUTO 20008KT 10SM SCT019 BKN055 OVC070 22/21 A3011 RMK AO2 T02220211
KORG 172255Z AUTO 18009G14KT 10SM SCT021 BKN030 OVC046 23/21 A3011 RMK AO2 T02250210
KORG 172235Z AUTO 18006KT 10SM SCT021 BKN028 OVC065 23/21 A3011 RMK AO2 T02290210
KORG 172215Z AUTO 20009KT 10SM SCT021 BKN028 OVC034 23/21 A3010 RMK AO2 T02330209
KORG 172155Z AUTO 20009KT 10SM BKN026 BKN034 OVC042 24/21 A3010 RMK AO2 T02360207
KORG 172135Z AUTO 19012KT 10SM BKN029 BKN045 OVC090 24/21 A3009 RMK AO2 T02410205
KORG 172115Z AUTO 22009G16KT 10SM SCT029 BKN055 OVC090 25/20 A3009 RMK AO2 T02470203
KORG 172055Z AUTO 21008KT 10SM SCT031 OVC065 24/20 A3009 RMK AO2 T02360201
KORG 172035Z AUTO 23008G14KT 5SM -RA SCT033 BKN043 OVC060 24/20 A3009 RMK AO2 T02390201
KORG 172015Z AUTO 22011KT 10SM SCT038 BKN045 OVC070 25/19 A3009 RMK AO2 T02510194
KORG 171955Z AUTO 22010KT 10SM SCT034 BKN060 OVC070 25/19 A3010 RMK AO2 T02530193
KORG 171935Z AUTO 25007KT 10SM BKN030 SCT041 OVC080 26/19 A3010 RMK AO2 T02590194
KORG 171915Z AUTO 23008KT 220V280 10SM BKN030 BKN044 OVC080 26/20 A3011 RMK AO2 T02550196
KORG 171855Z AUTO 22013G17KT 10SM SCT030 SCT065 BKN080 27/20 A3011 RMK AO2 T02650198
KORG 171835Z AUTO 23010KT 10SM SCT023 SCT032 BKN080 26/20 A3012 RMK AO2 T02620196
KORG 171815Z AUTO 22013G17KT 10SM BKN021 BKN028 OVC055 26/21 A3013 RMK AO2 T02580207
KORG 171755Z AUTO 23011G15KT 10SM BKN021 BKN026 OVC065 25/21 A3014 RMK AO2 T02470209 10249 20183
KORG 171735Z AUTO 23010KT 10SM SCT018 BKN024 OVC033 25/22 A3014 RMK AO2 T02490215
KORG 171715Z AUTO 22009KT 10SM SCT010 BKN018 OVC023 24/22 A3015 RMK AO2 T02360215
KORG 171655Z AUTO 20005KT 10SM SCT010 OVC015 23/21 A3015 RMK AO2 T02250214
KORG 171635Z AUTO 21005KT 10SM BKN009 OVC016 22/22 A3015 RMK AO2 T02190219
KORG 171615Z AUTO 20005KT 10SM BKN009 BKN016 OVC022 21/21 A3014 RMK AO2 T02120212